sensor_id;sensor_type;location;lat;lon;timestamp;P1;durP1;ratioP1;P2;durP2;ratioP2
20890;SDS011;10605;52.968;8.844;2022-11-20T00:00:03;27.57;;;19.03;;
20890;SDS011;10605;52.968;8.844;2022-11-20T00:02:29;26.20;;;18.55;;
20890;SDS011;10605;52.968;8.844;2022-11-20T00:04:55;30.83;;;19.77;;
20890;SDS011;10605;52.968;8.844;2022-11-20T00:07:21;31.83;;;19.97;;
20890;SDS011;10605;52.968;8.844;2022-11-20T00:09:46;30.97;;;20.20;;
20890;SDS011;10605;52.968;8.844;2022-11-20T00:12:12;33.00;;;20.38;;
20890;SDS011;10605;52.968;8.844;2022-11-20T00:14:38;27.33;;;19.67;;
20890;SDS011;10605;52.968;8.844;2022-11-20T00:17:04;30.60;;;19.75;;
20890;SDS011;10605;52.968;8.844;2022-11-20T00:19:29;30.67;;;19.60;;
20890;SDS011;10605;52.968;8.844;2022-11-20T00:21:55;27.55;;;19.50;;
20890;SDS011;10605;52.968;8.844;2022-11-20T00:24:20;30.45;;;19.60;;
20890;SDS011;10605;52.968;8.844;2022-11-20T00:26:46;28.77;;;19.23;;
20890;SDS011;10605;52.968;8.844;2022-11-20T00:29:12;30.00;;;20.13;;
20890;SDS011;10605;52.968;8.844;2022-11-20T00:31:37;28.50;;;18.92;;
20890;SDS011;10605;52.968;8.844;2022-11-20T00:34:03;29.37;;;19.60;;
20890;SDS011;10605;52.968;8.844;2022-11-20T00:36:31;30.42;;;19.63;;
20890;SDS011;10605;52.968;8.844;2022-11-20T00:38:58;29.48;;;18.15;;
20890;SDS011;10605;52.968;8.844;2022-11-20T00:41:25;31.85;;;19.75;;
20890;SDS011;10605;52.968;8.844;2022-11-20T00:43:52;27.20;;;18.67;;
20890;SDS011;10605;52.968;8.844;2022-11-20T00:46:20;28.37;;;18.53;;
20890;SDS011;10605;52.968;8.844;2022-11-20T00:48:47;26.40;;;18.90;;
20890;SDS011;10605;52.968;8.844;2022-11-20T00:51:13;27.05;;;19.23;;
20890;SDS011;10605;52.968;8.844;2022-11-20T00:53:40;26.88;;;19.63;;
20890;SDS011;10605;52.968;8.844;2022-11-20T00:56:07;25.97;;;18.87;;
20890;SDS011;10605;52.968;8.844;2022-11-20T00:58:36;31.70;;;20.40;;
20890;SDS011;10605;52.968;8.844;2022-11-20T01:03:32;28.33;;;19.75;;
20890;SDS011;10605;52.968;8.844;2022-11-20T01:06:00;30.05;;;19.63;;
20890;SDS011;10605;52.968;8.844;2022-11-20T01:08:35;30.75;;;20.27;;
20890;SDS011;10605;52.968;8.844;2022-11-20T01:11:07;26.63;;;19.40;;
20890;SDS011;10605;52.968;8.844;2022-11-20T01:13:38;27.98;;;19.52;;
20890;SDS011;10605;52.968;8.844;2022-11-20T01:16:10;30.35;;;19.27;;
20890;SDS011;10605;52.968;8.844;2022-11-20T01:18:36;22.80;;;17.73;;
20890;SDS011;10605;52.968;8.844;2022-11-20T01:21:04;28.73;;;19.55;;
20890;SDS011;10605;52.968;8.844;2022-11-20T01:23:35;30.08;;;19.35;;
20890;SDS011;10605;52.968;8.844;2022-11-20T01:26:03;28.17;;;18.85;;
20890;SDS011;10605;52.968;8.844;2022-11-20T01:28:31;27.52;;;19.10;;
20890;SDS011;10605;52.968;8.844;2022-11-20T01:30:56;26.25;;;18.92;;
20890;SDS011;10605;52.968;8.844;2022-11-20T01:33:23;27.70;;;18.63;;
20890;SDS011;10605;52.968;8.844;2022-11-20T01:35:49;26.15;;;17.80;;
20890;SDS011;10605;52.968;8.844;2022-11-20T01:38:15;28.35;;;19.15;;
20890;SDS011;10605;52.968;8.844;2022-11-20T01:40:41;26.27;;;19.10;;
20890;SDS011;10605;52.968;8.844;2022-11-20T01:43:12;27.57;;;18.63;;
20890;SDS011;10605;52.968;8.844;2022-11-20T01:48:42;28.27;;;18.63;;
20890;SDS011;10605;52.968;8.844;2022-11-20T01:51:15;26.40;;;18.17;;
20890;SDS011;10605;52.968;8.844;2022-11-20T01:53:54;30.88;;;18.45;;
20890;SDS011;10605;52.968;8.844;2022-11-20T01:56:23;29.48;;;19.02;;
20890;SDS011;10605;52.968;8.844;2022-11-20T01:58:51;25.52;;;18.38;;
20890;SDS011;10605;52.968;8.844;2022-11-20T02:01:21;29.38;;;19.35;;
20890;SDS011;10605;52.968;8.844;2022-11-20T02:03:47;33.17;;;19.52;;
20890;SDS011;10605;52.968;8.844;2022-11-20T02:06:57;25.90;;;18.42;;
20890;SDS011;10605;52.968;8.844;2022-11-20T02:09:03;27.13;;;18.63;;
20890;SDS011;10605;52.968;8.844;2022-11-20T02:11:29;26.42;;;18.40;;
20890;SDS011;10605;52.968;8.844;2022-11-20T02:13:55;29.92;;;19.08;;
20890;SDS011;10605;52.968;8.844;2022-11-20T02:18:52;25.88;;;18.15;;
20890;SDS011;10605;52.968;8.844;2022-11-20T02:26:43;29.97;;;18.97;;
20890;SDS011;10605;52.968;8.844;2022-11-20T02:29:13;27.80;;;18.08;;
20890;SDS011;10605;52.968;8.844;2022-11-20T02:31:48;27.13;;;17.83;;
20890;SDS011;10605;52.968;8.844;2022-11-20T02:34:13;25.85;;;18.08;;
20890;SDS011;10605;52.968;8.844;2022-11-20T02:36:39;27.85;;;18.02;;
20890;SDS011;10605;52.968;8.844;2022-11-20T02:39:06;30.63;;;17.52;;
20890;SDS011;10605;52.968;8.844;2022-11-20T02:41:33;25.40;;;17.60;;
20890;SDS011;10605;52.968;8.844;2022-11-20T02:44:00;27.00;;;17.08;;
20890;SDS011;10605;52.968;8.844;2022-11-20T02:46:26;26.42;;;16.92;;
20890;SDS011;10605;52.968;8.844;2022-11-20T02:48:51;26.75;;;17.02;;
20890;SDS011;10605;52.968;8.844;2022-11-20T02:51:17;24.95;;;16.75;;
20890;SDS011;10605;52.968;8.844;2022-11-20T02:53:43;24.83;;;16.73;;
20890;SDS011;10605;52.968;8.844;2022-11-20T02:56:08;26.15;;;16.80;;
20890;SDS011;10605;52.968;8.844;2022-11-20T02:58:35;23.50;;;17.05;;
20890;SDS011;10605;52.968;8.844;2022-11-20T03:01:01;22.55;;;16.10;;
20890;SDS011;10605;52.968;8.844;2022-11-20T03:03:27;27.45;;;16.88;;
20890;SDS011;10605;52.968;8.844;2022-11-20T03:05:52;20.00;;;14.85;;
20890;SDS011;10605;52.968;8.844;2022-11-20T03:08:18;26.05;;;16.23;;
20890;SDS011;10605;52.968;8.844;2022-11-20T03:10:43;21.93;;;15.63;;
20890;SDS011;10605;52.968;8.844;2022-11-20T03:13:09;23.05;;;16.48;;
20890;SDS011;10605;52.968;8.844;2022-11-20T03:15:35;21.70;;;15.40;;
20890;SDS011;10605;52.968;8.844;2022-11-20T03:18:02;26.92;;;15.35;;
20890;SDS011;10605;52.968;8.844;2022-11-20T03:20:27;22.88;;;15.10;;
20890;SDS011;10605;52.968;8.844;2022-11-20T03:22:53;20.40;;;14.77;;
20890;SDS011;10605;52.968;8.844;2022-11-20T03:25:20;21.10;;;15.05;;
20890;SDS011;10605;52.968;8.844;2022-11-20T03:27:46;23.75;;;15.60;;
20890;SDS011;10605;52.968;8.844;2022-11-20T03:30:11;22.30;;;15.20;;
20890;SDS011;10605;52.968;8.844;2022-11-20T03:32:38;22.50;;;15.20;;
20890;SDS011;10605;52.968;8.844;2022-11-20T03:35:03;20.33;;;14.38;;
20890;SDS011;10605;52.968;8.844;2022-11-20T03:37:29;21.42;;;14.48;;
20890;SDS011;10605;52.968;8.844;2022-11-20T03:39:55;19.13;;;14.73;;
20890;SDS011;10605;52.968;8.844;2022-11-20T03:42:20;19.80;;;14.25;;
20890;SDS011;10605;52.968;8.844;2022-11-20T03:45:05;21.10;;;14.18;;
20890;SDS011;10605;52.968;8.844;2022-11-20T03:47:31;20.23;;;14.57;;
20890;SDS011;10605;52.968;8.844;2022-11-20T03:49:56;18.58;;;13.95;;
20890;SDS011;10605;52.968;8.844;2022-11-20T03:52:22;20.05;;;14.52;;
20890;SDS011;10605;52.968;8.844;2022-11-20T03:54:48;25.75;;;14.90;;
20890;SDS011;10605;52.968;8.844;2022-11-20T03:57:13;19.48;;;13.65;;
20890;SDS011;10605;52.968;8.844;2022-11-20T03:59:39;17.52;;;12.93;;
20890;SDS011;10605;52.968;8.844;2022-11-20T04:02:04;21.27;;;14.07;;
20890;SDS011;10605;52.968;8.844;2022-11-20T04:04:30;20.58;;;14.13;;
20890;SDS011;10605;52.968;8.844;2022-11-20T04:06:56;22.85;;;13.55;;
20890;SDS011;10605;52.968;8.844;2022-11-20T04:09:21;22.58;;;13.77;;
20890;SDS011;10605;52.968;8.844;2022-11-20T04:11:47;20.13;;;14.25;;
20890;SDS011;10605;52.968;8.844;2022-11-20T04:14:13;23.05;;;13.95;;
20890;SDS011;10605;52.968;8.844;2022-11-20T04:16:40;17.83;;;13.63;;
20890;SDS011;10605;52.968;8.844;2022-11-20T04:19:06;19.48;;;13.75;;
20890;SDS011;10605;52.968;8.844;2022-11-20T04:21:35;18.55;;;13.02;;
20890;SDS011;10605;52.968;8.844;2022-11-20T04:24:01;18.63;;;13.65;;
20890;SDS011;10605;52.968;8.844;2022-11-20T04:26:28;21.95;;;13.82;;
20890;SDS011;10605;52.968;8.844;2022-11-20T04:28:54;21.35;;;14.05;;
20890;SDS011;10605;52.968;8.844;2022-11-20T04:31:22;23.45;;;14.32;;
20890;SDS011;10605;52.968;8.844;2022-11-20T04:33:49;22.02;;;13.85;;
20890;SDS011;10605;52.968;8.844;2022-11-20T04:36:16;19.33;;;14.00;;
20890;SDS011;10605;52.968;8.844;2022-11-20T04:38:52;20.48;;;14.30;;
20890;SDS011;10605;52.968;8.844;2022-11-20T04:41:20;21.95;;;14.80;;
20890;SDS011;10605;52.968;8.844;2022-11-20T04:43:48;22.07;;;14.07;;
20890;SDS011;10605;52.968;8.844;2022-11-20T04:46:15;17.25;;;13.43;;
20890;SDS011;10605;52.968;8.844;2022-11-20T04:48:44;18.65;;;14.38;;
20890;SDS011;10605;52.968;8.844;2022-11-20T04:51:10;23.13;;;14.02;;
20890;SDS011;10605;52.968;8.844;2022-11-20T04:53:37;19.27;;;13.65;;
20890;SDS011;10605;52.968;8.844;2022-11-20T04:56:03;19.17;;;13.52;;
20890;SDS011;10605;52.968;8.844;2022-11-20T04:58:31;18.05;;;13.70;;
20890;SDS011;10605;52.968;8.844;2022-11-20T05:01:15;20.90;;;13.60;;
20890;SDS011;10605;52.968;8.844;2022-11-20T05:03:45;20.88;;;14.68;;
20890;SDS011;10605;52.968;8.844;2022-11-20T05:06:12;21.23;;;13.32;;
20890;SDS011;10605;52.968;8.844;2022-11-20T05:08:40;20.23;;;13.32;;
20890;SDS011;10605;52.968;8.844;2022-11-20T05:11:12;17.05;;;13.13;;
20890;SDS011;10605;52.968;8.844;2022-11-20T05:13:40;15.35;;;12.63;;
20890;SDS011;10605;52.968;8.844;2022-11-20T05:16:07;17.58;;;13.48;;
20890;SDS011;10605;52.968;8.844;2022-11-20T05:18:37;17.33;;;12.45;;
20890;SDS011;10605;52.968;8.844;2022-11-20T05:21:03;19.13;;;13.53;;
20890;SDS011;10605;52.968;8.844;2022-11-20T05:23:30;19.63;;;13.95;;
20890;SDS011;10605;52.968;8.844;2022-11-20T05:25:57;20.17;;;13.68;;
20890;SDS011;10605;52.968;8.844;2022-11-20T05:28:23;18.00;;;13.05;;
20890;SDS011;10605;52.968;8.844;2022-11-20T05:30:49;20.52;;;13.20;;
20890;SDS011;10605;52.968;8.844;2022-11-20T05:33:15;14.80;;;12.18;;
20890;SDS011;10605;52.968;8.844;2022-11-20T05:35:41;15.88;;;13.27;;
20890;SDS011;10605;52.968;8.844;2022-11-20T05:38:07;18.80;;;13.40;;
20890;SDS011;10605;52.968;8.844;2022-11-20T05:40:33;18.25;;;13.82;;
20890;SDS011;10605;52.968;8.844;2022-11-20T05:42:59;20.25;;;13.13;;
20890;SDS011;10605;52.968;8.844;2022-11-20T05:45:25;19.48;;;13.45;;
20890;SDS011;10605;52.968;8.844;2022-11-20T05:47:51;24.80;;;13.15;;
20890;SDS011;10605;52.968;8.844;2022-11-20T05:50:17;18.35;;;13.52;;
20890;SDS011;10605;52.968;8.844;2022-11-20T05:52:43;19.20;;;13.70;;
20890;SDS011;10605;52.968;8.844;2022-11-20T05:55:09;17.38;;;13.27;;
20890;SDS011;10605;52.968;8.844;2022-11-20T05:57:34;18.87;;;13.17;;
20890;SDS011;10605;52.968;8.844;2022-11-20T06:00:00;16.63;;;12.68;;
20890;SDS011;10605;52.968;8.844;2022-11-20T06:02:27;16.00;;;12.75;;
20890;SDS011;10605;52.968;8.844;2022-11-20T06:04:53;19.40;;;13.88;;
20890;SDS011;10605;52.968;8.844;2022-11-20T06:07:18;20.23;;;13.35;;
20890;SDS011;10605;52.968;8.844;2022-11-20T06:09:44;17.95;;;13.63;;
20890;SDS011;10605;52.968;8.844;2022-11-20T06:12:10;19.52;;;13.60;;
20890;SDS011;10605;52.968;8.844;2022-11-20T06:14:35;19.85;;;13.70;;
20890;SDS011;10605;52.968;8.844;2022-11-20T06:17:01;21.10;;;12.70;;
20890;SDS011;10605;52.968;8.844;2022-11-20T06:19:27;15.50;;;12.73;;
20890;SDS011;10605;52.968;8.844;2022-11-20T06:21:52;17.23;;;13.10;;
20890;SDS011;10605;52.968;8.844;2022-11-20T06:24:18;18.13;;;13.25;;
20890;SDS011;10605;52.968;8.844;2022-11-20T06:26:44;16.40;;;12.70;;
20890;SDS011;10605;52.968;8.844;2022-11-20T06:29:09;17.98;;;12.77;;
20890;SDS011;10605;52.968;8.844;2022-11-20T06:31:35;17.60;;;12.63;;
20890;SDS011;10605;52.968;8.844;2022-11-20T06:34:03;20.20;;;13.10;;
20890;SDS011;10605;52.968;8.844;2022-11-20T06:36:29;16.25;;;13.07;;
20890;SDS011;10605;52.968;8.844;2022-11-20T06:38:55;18.33;;;13.07;;
20890;SDS011;10605;52.968;8.844;2022-11-20T06:41:21;18.92;;;12.38;;
20890;SDS011;10605;52.968;8.844;2022-11-20T06:43:47;14.90;;;12.10;;
20890;SDS011;10605;52.968;8.844;2022-11-20T06:46:14;13.40;;;12.00;;
20890;SDS011;10605;52.968;8.844;2022-11-20T06:48:42;19.90;;;12.60;;
20890;SDS011;10605;52.968;8.844;2022-11-20T06:51:08;18.38;;;12.43;;
20890;SDS011;10605;52.968;8.844;2022-11-20T06:53:34;16.58;;;12.75;;
20890;SDS011;10605;52.968;8.844;2022-11-20T06:56:00;18.80;;;13.82;;
20890;SDS011;10605;52.968;8.844;2022-11-20T06:58:27;16.92;;;12.52;;
20890;SDS011;10605;52.968;8.844;2022-11-20T07:00:57;19.58;;;13.55;;
20890;SDS011;10605;52.968;8.844;2022-11-20T07:03:24;21.80;;;14.75;;
20890;SDS011;10605;52.968;8.844;2022-11-20T07:05:49;22.92;;;14.27;;
20890;SDS011;10605;52.968;8.844;2022-11-20T07:08:15;16.98;;;13.73;;
20890;SDS011;10605;52.968;8.844;2022-11-20T07:10:40;18.38;;;12.45;;
20890;SDS011;10605;52.968;8.844;2022-11-20T07:13:06;14.17;;;12.13;;
20890;SDS011;10605;52.968;8.844;2022-11-20T07:15:32;15.15;;;12.27;;
20890;SDS011;10605;52.968;8.844;2022-11-20T07:18:00;17.33;;;12.83;;
20890;SDS011;10605;52.968;8.844;2022-11-20T07:20:26;16.27;;;12.53;;
20890;SDS011;10605;52.968;8.844;2022-11-20T07:22:53;15.68;;;12.27;;
20890;SDS011;10605;52.968;8.844;2022-11-20T07:25:20;14.93;;;12.02;;
20890;SDS011;10605;52.968;8.844;2022-11-20T07:27:45;20.20;;;13.40;;
20890;SDS011;10605;52.968;8.844;2022-11-20T07:30:11;16.87;;;13.60;;
20890;SDS011;10605;52.968;8.844;2022-11-20T07:32:38;15.05;;;12.27;;
20890;SDS011;10605;52.968;8.844;2022-11-20T07:35:04;16.48;;;12.73;;
20890;SDS011;10605;52.968;8.844;2022-11-20T07:37:30;20.75;;;13.38;;
20890;SDS011;10605;52.968;8.844;2022-11-20T07:40:02;16.13;;;12.50;;
20890;SDS011;10605;52.968;8.844;2022-11-20T07:42:28;17.00;;;12.55;;
20890;SDS011;10605;52.968;8.844;2022-11-20T07:44:54;15.10;;;12.27;;
20890;SDS011;10605;52.968;8.844;2022-11-20T07:47:19;16.45;;;13.07;;
20890;SDS011;10605;52.968;8.844;2022-11-20T07:49:45;15.18;;;12.73;;
20890;SDS011;10605;52.968;8.844;2022-11-20T07:52:11;17.38;;;12.45;;
20890;SDS011;10605;52.968;8.844;2022-11-20T07:54:37;16.60;;;12.90;;
20890;SDS011;10605;52.968;8.844;2022-11-20T07:57:03;17.17;;;13.43;;
20890;SDS011;10605;52.968;8.844;2022-11-20T07:59:28;16.75;;;12.85;;
20890;SDS011;10605;52.968;8.844;2022-11-20T08:01:54;17.58;;;11.93;;
20890;SDS011;10605;52.968;8.844;2022-11-20T08:04:20;17.63;;;12.90;;
20890;SDS011;10605;52.968;8.844;2022-11-20T08:06:46;15.85;;;12.68;;
20890;SDS011;10605;52.968;8.844;2022-11-20T08:09:12;20.67;;;11.68;;
20890;SDS011;10605;52.968;8.844;2022-11-20T08:11:37;15.10;;;12.38;;
20890;SDS011;10605;52.968;8.844;2022-11-20T08:14:22;13.85;;;11.63;;
20890;SDS011;10605;52.968;8.844;2022-11-20T08:16:48;16.45;;;12.45;;
20890;SDS011;10605;52.968;8.844;2022-11-20T08:19:15;13.15;;;10.98;;
20890;SDS011;10605;52.968;8.844;2022-11-20T08:21:42;16.85;;;11.90;;
20890;SDS011;10605;52.968;8.844;2022-11-20T08:24:09;13.93;;;11.52;;
20890;SDS011;10605;52.968;8.844;2022-11-20T08:26:36;13.90;;;11.13;;
20890;SDS011;10605;52.968;8.844;2022-11-20T08:29:02;19.05;;;12.07;;
20890;SDS011;10605;52.968;8.844;2022-11-20T08:31:29;12.85;;;11.02;;
20890;SDS011;10605;52.968;8.844;2022-11-20T08:33:55;15.60;;;11.65;;
20890;SDS011;10605;52.968;8.844;2022-11-20T08:36:22;13.82;;;11.52;;
20890;SDS011;10605;52.968;8.844;2022-11-20T08:38:48;12.48;;;11.18;;
20890;SDS011;10605;52.968;8.844;2022-11-20T08:41:15;16.63;;;11.43;;
20890;SDS011;10605;52.968;8.844;2022-11-20T08:43:58;16.98;;;11.73;;
20890;SDS011;10605;52.968;8.844;2022-11-20T08:46:26;15.13;;;12.32;;
20890;SDS011;10605;52.968;8.844;2022-11-20T08:49:06;18.50;;;13.43;;
20890;SDS011;10605;52.968;8.844;2022-11-20T08:51:33;14.50;;;12.32;;
20890;SDS011;10605;52.968;8.844;2022-11-20T08:54:00;16.27;;;12.55;;
20890;SDS011;10605;52.968;8.844;2022-11-20T08:56:26;18.48;;;12.63;;
20890;SDS011;10605;52.968;8.844;2022-11-20T08:58:52;23.48;;;13.27;;
20890;SDS011;10605;52.968;8.844;2022-11-20T09:01:18;21.65;;;13.18;;
20890;SDS011;10605;52.968;8.844;2022-11-20T09:03:45;16.65;;;12.68;;
20890;SDS011;10605;52.968;8.844;2022-11-20T09:06:10;16.48;;;12.48;;
20890;SDS011;10605;52.968;8.844;2022-11-20T09:08:36;15.35;;;12.43;;
20890;SDS011;10605;52.968;8.844;2022-11-20T09:11:02;13.18;;;11.77;;
20890;SDS011;10605;52.968;8.844;2022-11-20T09:13:32;15.23;;;11.75;;
20890;SDS011;10605;52.968;8.844;2022-11-20T09:15:59;13.05;;;11.55;;
20890;SDS011;10605;52.968;8.844;2022-11-20T09:18:30;16.00;;;12.05;;
20890;SDS011;10605;52.968;8.844;2022-11-20T09:21:01;14.68;;;11.35;;
20890;SDS011;10605;52.968;8.844;2022-11-20T09:23:31;13.27;;;11.88;;
20890;SDS011;10605;52.968;8.844;2022-11-20T09:26:01;16.58;;;11.50;;
20890;SDS011;10605;52.968;8.844;2022-11-20T09:28:33;15.73;;;12.15;;
20890;SDS011;10605;52.968;8.844;2022-11-20T09:31:05;12.95;;;11.65;;
20890;SDS011;10605;52.968;8.844;2022-11-20T09:33:39;14.65;;;11.70;;
20890;SDS011;10605;52.968;8.844;2022-11-20T09:36:05;12.38;;;11.07;;
20890;SDS011;10605;52.968;8.844;2022-11-20T09:38:30;14.63;;;11.85;;
20890;SDS011;10605;52.968;8.844;2022-11-20T09:41:03;13.65;;;12.25;;
20890;SDS011;10605;52.968;8.844;2022-11-20T09:54:25;14.43;;;11.50;;
20890;SDS011;10605;52.968;8.844;2022-11-20T09:57:01;14.90;;;11.50;;
20890;SDS011;10605;52.968;8.844;2022-11-20T09:59:32;15.00;;;11.93;;
20890;SDS011;10605;52.968;8.844;2022-11-20T10:02:02;16.40;;;12.05;;
20890;SDS011;10605;52.968;8.844;2022-11-20T10:05:35;13.25;;;11.52;;
20890;SDS011;10605;52.968;8.844;2022-11-20T10:08:44;12.88;;;10.95;;
20890;SDS011;10605;52.968;8.844;2022-11-20T10:11:05;12.63;;;11.10;;
20890;SDS011;10605;52.968;8.844;2022-11-20T10:16:36;12.38;;;11.07;;
20890;SDS011;10605;52.968;8.844;2022-11-20T10:25:16;13.40;;;10.63;;
20890;SDS011;10605;52.968;8.844;2022-11-20T10:28:21;14.60;;;12.07;;
20890;SDS011;10605;52.968;8.844;2022-11-20T10:30:42;16.30;;;11.88;;
20890;SDS011;10605;52.968;8.844;2022-11-20T10:33:19;15.40;;;11.88;;
20890;SDS011;10605;52.968;8.844;2022-11-20T10:35:50;13.73;;;11.40;;
20890;SDS011;10605;52.968;8.844;2022-11-20T10:38:40;13.23;;;11.85;;
20890;SDS011;10605;52.968;8.844;2022-11-20T10:41:22;12.88;;;11.38;;
20890;SDS011;10605;52.968;8.844;2022-11-20T10:43:52;13.27;;;11.55;;
20890;SDS011;10605;52.968;8.844;2022-11-20T10:49:53;18.15;;;11.77;;
20890;SDS011;10605;52.968;8.844;2022-11-20T10:55:02;13.05;;;11.30;;
20890;SDS011;10605;52.968;8.844;2022-11-20T11:05:04;19.10;;;12.18;;
20890;SDS011;10605;52.968;8.844;2022-11-20T11:07:55;13.27;;;11.88;;
20890;SDS011;10605;52.968;8.844;2022-11-20T11:13:23;14.48;;;10.98;;
20890;SDS011;10605;52.968;8.844;2022-11-20T11:15:50;14.15;;;11.32;;
20890;SDS011;10605;52.968;8.844;2022-11-20T11:18:23;12.25;;;10.95;;
20890;SDS011;10605;52.968;8.844;2022-11-20T11:21:00;12.55;;;11.07;;
20890;SDS011;10605;52.968;8.844;2022-11-20T11:23:31;14.60;;;12.18;;
20890;SDS011;10605;52.968;8.844;2022-11-20T11:26:04;12.77;;;11.48;;
20890;SDS011;10605;52.968;8.844;2022-11-20T11:28:31;12.50;;;11.23;;
20890;SDS011;10605;52.968;8.844;2022-11-20T11:30:57;14.35;;;11.45;;
20890;SDS011;10605;52.968;8.844;2022-11-20T11:33:30;15.02;;;11.88;;
20890;SDS011;10605;52.968;8.844;2022-11-20T11:36:02;15.02;;;11.82;;
20890;SDS011;10605;52.968;8.844;2022-11-20T11:38:41;17.33;;;11.23;;
20890;SDS011;10605;52.968;8.844;2022-11-20T11:41:41;15.20;;;11.00;;
20890;SDS011;10605;52.968;8.844;2022-11-20T11:44:14;14.90;;;11.05;;
20890;SDS011;10605;52.968;8.844;2022-11-20T11:46:59;11.55;;;10.35;;
20890;SDS011;10605;52.968;8.844;2022-11-20T11:49:25;11.23;;;10.02;;
20890;SDS011;10605;52.968;8.844;2022-11-20T11:52:11;12.20;;;10.93;;
20890;SDS011;10605;52.968;8.844;2022-11-20T11:54:48;11.80;;;10.10;;
20890;SDS011;10605;52.968;8.844;2022-11-20T11:59:51;9.95;;;8.85;;
20890;SDS011;10605;52.968;8.844;2022-11-20T12:05:23;12.25;;;10.02;;
20890;SDS011;10605;52.968;8.844;2022-11-20T12:15:50;12.95;;;11.00;;
20890;SDS011;10605;52.968;8.844;2022-11-20T12:18:18;12.85;;;11.52;;
20890;SDS011;10605;52.968;8.844;2022-11-20T12:20:48;14.07;;;12.10;;
20890;SDS011;10605;52.968;8.844;2022-11-20T12:23:43;14.63;;;12.30;;
20890;SDS011;10605;52.968;8.844;2022-11-20T12:26:22;13.13;;;11.55;;
20890;SDS011;10605;52.968;8.844;2022-11-20T12:29:09;13.95;;;11.55;;
20890;SDS011;10605;52.968;8.844;2022-11-20T12:36:53;17.08;;;12.77;;
20890;SDS011;10605;52.968;8.844;2022-11-20T12:39:35;17.30;;;12.63;;
20890;SDS011;10605;52.968;8.844;2022-11-20T12:50:47;15.15;;;12.65;;
20890;SDS011;10605;52.968;8.844;2022-11-20T13:01:51;15.15;;;12.80;;
20890;SDS011;10605;52.968;8.844;2022-11-20T13:07:04;14.15;;;12.18;;
20890;SDS011;10605;52.968;8.844;2022-11-20T13:09:39;17.90;;;12.85;;
20890;SDS011;10605;52.968;8.844;2022-11-20T13:12:13;14.48;;;12.32;;
20890;SDS011;10605;52.968;8.844;2022-11-20T13:15:05;18.05;;;12.63;;
20890;SDS011;10605;52.968;8.844;2022-11-20T13:20:14;16.27;;;12.90;;
20890;SDS011;10605;52.968;8.844;2022-11-20T13:22:49;17.90;;;12.88;;
20890;SDS011;10605;52.968;8.844;2022-11-20T13:25:32;16.27;;;13.05;;
20890;SDS011;10605;52.968;8.844;2022-11-20T13:28:01;16.67;;;13.18;;
20890;SDS011;10605;52.968;8.844;2022-11-20T13:30:29;14.55;;;12.65;;
20890;SDS011;10605;52.968;8.844;2022-11-20T13:32:57;16.27;;;11.70;;
20890;SDS011;10605;52.968;8.844;2022-11-20T13:35:37;20.02;;;12.38;;
20890;SDS011;10605;52.968;8.844;2022-11-20T13:40:36;16.08;;;12.38;;
20890;SDS011;10605;52.968;8.844;2022-11-20T13:43:48;16.88;;;13.13;;
20890;SDS011;10605;52.968;8.844;2022-11-20T13:46:08;15.02;;;11.73;;
20890;SDS011;10605;52.968;8.844;2022-11-20T13:48:38;20.13;;;13.38;;
20890;SDS011;10605;52.968;8.844;2022-11-20T13:59:57;17.58;;;14.10;;
20890;SDS011;10605;52.968;8.844;2022-11-20T14:02:25;20.52;;;15.38;;
20890;SDS011;10605;52.968;8.844;2022-11-20T14:04:53;16.75;;;13.88;;
20890;SDS011;10605;52.968;8.844;2022-11-20T14:07:24;20.50;;;14.63;;
20890;SDS011;10605;52.968;8.844;2022-11-20T14:09:57;18.58;;;14.52;;
20890;SDS011;10605;52.968;8.844;2022-11-20T14:12:27;19.13;;;13.50;;
20890;SDS011;10605;52.968;8.844;2022-11-20T14:14:54;17.38;;;13.98;;
20890;SDS011;10605;52.968;8.844;2022-11-20T14:17:22;19.00;;;14.60;;
20890;SDS011;10605;52.968;8.844;2022-11-20T14:19:48;18.15;;;14.50;;
20890;SDS011;10605;52.968;8.844;2022-11-20T14:22:22;21.63;;;14.45;;
20890;SDS011;10605;52.968;8.844;2022-11-20T14:25:18;18.65;;;15.15;;
20890;SDS011;10605;52.968;8.844;2022-11-20T14:27:55;18.75;;;14.57;;
20890;SDS011;10605;52.968;8.844;2022-11-20T14:30:44;17.10;;;14.25;;
20890;SDS011;10605;52.968;8.844;2022-11-20T14:33:13;19.00;;;14.98;;
20890;SDS011;10605;52.968;8.844;2022-11-20T14:35:42;21.02;;;15.82;;
20890;SDS011;10605;52.968;8.844;2022-11-20T14:38:15;22.40;;;15.88;;
20890;SDS011;10605;52.968;8.844;2022-11-20T14:40:43;28.42;;;16.73;;
20890;SDS011;10605;52.968;8.844;2022-11-20T14:43:25;27.00;;;18.15;;
20890;SDS011;10605;52.968;8.844;2022-11-20T14:45:59;21.92;;;16.60;;
20890;SDS011;10605;52.968;8.844;2022-11-20T14:51:23;29.88;;;19.92;;
20890;SDS011;10605;52.968;8.844;2022-11-20T14:56:53;19.75;;;15.82;;
20890;SDS011;10605;52.968;8.844;2022-11-20T14:59:26;19.23;;;15.88;;
20890;SDS011;10605;52.968;8.844;2022-11-20T15:01:54;24.05;;;18.70;;
20890;SDS011;10605;52.968;8.844;2022-11-20T15:04:26;23.10;;;18.60;;
20890;SDS011;10605;52.968;8.844;2022-11-20T15:06:53;23.70;;;18.40;;
20890;SDS011;10605;52.968;8.844;2022-11-20T15:09:20;26.08;;;19.25;;
20890;SDS011;10605;52.968;8.844;2022-11-20T15:11:56;29.58;;;20.25;;
20890;SDS011;10605;52.968;8.844;2022-11-20T15:14:24;31.48;;;22.98;;
20890;SDS011;10605;52.968;8.844;2022-11-20T15:16:52;36.53;;;25.77;;
20890;SDS011;10605;52.968;8.844;2022-11-20T15:19:19;26.30;;;20.15;;
20890;SDS011;10605;52.968;8.844;2022-11-20T15:21:47;28.42;;;18.88;;
20890;SDS011;10605;52.968;8.844;2022-11-20T15:24:14;25.63;;;18.30;;
20890;SDS011;10605;52.968;8.844;2022-11-20T15:26:39;24.73;;;18.40;;
20890;SDS011;10605;52.968;8.844;2022-11-20T15:29:09;34.57;;;17.27;;
20890;SDS011;10605;52.968;8.844;2022-11-20T15:31:37;20.20;;;14.93;;
20890;SDS011;10605;52.968;8.844;2022-11-20T15:34:09;19.43;;;15.33;;
20890;SDS011;10605;52.968;8.844;2022-11-20T15:36:37;22.30;;;16.55;;
20890;SDS011;10605;52.968;8.844;2022-11-20T15:39:02;20.93;;;15.80;;
20890;SDS011;10605;52.968;8.844;2022-11-20T15:41:28;20.67;;;15.75;;
20890;SDS011;10605;52.968;8.844;2022-11-20T15:43:54;19.50;;;15.38;;
20890;SDS011;10605;52.968;8.844;2022-11-20T15:46:23;23.40;;;14.30;;
20890;SDS011;10605;52.968;8.844;2022-11-20T15:48:54;20.77;;;14.50;;
20890;SDS011;10605;52.968;8.844;2022-11-20T15:51:36;18.30;;;14.90;;
20890;SDS011;10605;52.968;8.844;2022-11-20T15:54:09;20.30;;;14.33;;
20890;SDS011;10605;52.968;8.844;2022-11-20T15:56:37;17.10;;;14.13;;
20890;SDS011;10605;52.968;8.844;2022-11-20T15:59:03;17.83;;;14.18;;
20890;SDS011;10605;52.968;8.844;2022-11-20T16:01:29;20.73;;;14.33;;
20890;SDS011;10605;52.968;8.844;2022-11-20T16:03:55;18.60;;;14.53;;
20890;SDS011;10605;52.968;8.844;2022-11-20T16:06:23;23.23;;;15.13;;
20890;SDS011;10605;52.968;8.844;2022-11-20T16:08:49;18.50;;;14.37;;
20890;SDS011;10605;52.968;8.844;2022-11-20T16:11:15;22.03;;;15.00;;
20890;SDS011;10605;52.968;8.844;2022-11-20T16:13:42;16.80;;;14.07;;
20890;SDS011;10605;52.968;8.844;2022-11-20T16:16:28;19.73;;;13.90;;
20890;SDS011;10605;52.968;8.844;2022-11-20T16:18:57;19.10;;;13.87;;
20890;SDS011;10605;52.968;8.844;2022-11-20T16:21:22;19.20;;;14.85;;